Safaga, Egypt
Current Conditions -  °F | °C
As of 8:00 PM on Sunday 21 Dec 2014 (Local Time) from HEGN Reporting Station
Clear Clear  
Wind Chill: 64°   Ceiling: Unl
Heat Index: 64°   Visibility: 6mi
Dew Point: 39°   Wind: 6mph
Humidity: 40%   Direction: 30°NNE
Pressure: 30.09"   Gusts: NA
Location:  26.73°N, 33.93°E
Report Text: HEGN 211800Z 03005KT CAVOK 18/04 Q1019 NOSIG
Loading
Personal Weather Stations






























Interactive Weather Map New forecast layout! Learn more

10-Day Weather Forecast

Advertisements
Track Severe Weather on mobile